La Grande, WA (98348)

10:00 AM PDT on March 24, 2017 (GMT -0700)
Triangle Marsh | | Change Station

Elev 757 ft 46.86 °N, 122.29 °W | Updated 8 seconds ago

Rain
Rain
46.8 °F
Feels Like 43 °F
N
8.0
Wind Variable Wind from North
Gusts 8.0 mph

Today
High -- | Low -- °F
--% Chance of Precip.
Yesterday
High -- | Low -- °F
Precip. -- in
Pressure 29.81 in
Visibility 7.0 miles
Clouds
Windchill 43 °F
Dew Point 41 °F
Humidity 79%
Rainfall 0.05 in
Snow Depth Not available.
7:03 AM 7:28 PM
Waning Crescent, 14% visible
METAR KPLU 241655Z AUTO 15005G11KT 7SM -DZ 09/06 A2981 RMK AO2
Pressure 29.81 in
Visibility 7.0 miles
Clouds
Windchill 43 °F
Dew Point 41 °F
Humidity 79%
Rainfall 0.05 in
Snow Depth Not available.
7:03 AM 7:28 PM
Waning Crescent, 14% visible
METAR KPLU 241655Z AUTO 15005G11KT 7SM -DZ 09/06 A2981 RMK AO2

Get Severe Weather Alerts

Thanks for signing up!

Be on the lookout for a verification email in your inbox.

You'll start receiving the daily forecast at 8 AM.

×

10-Day Weather Forecast

Almanac

Astronomy

Mar. 24, 2017 Rise Set
Actual Time
Civil Twilight
Nautical Twilight
Astronomical Twilight
Moon
Length of Visible Light
Length of Day
Tomorrow will be .
, % of the Moon is Illuminated

Today's Extremes

State Highs State Lows

Community

WunderPhotos

Upload Photos

1,962,540 photos uploaded!

WunderBlog® & News

Nearby

Air Quality

  Air Quality AQ Index Pollutant
Not available.

Snow Depth

Station Depth Elevation

Earthquake Activity

City Distance Mag. Time & Date
Minimum magnitude displayed is 2.5.

Earthquake Activity

City Distance Mag. Time & Date
Minimum magnitude displayed is 2.5.

Coastal Water Temperatures

Place Temperature

Stations

Nearby Weather Stations

Station Location Temp. Windchill Dew Point Humidity Wind Precip. Elev Updated Type
                   

Watches & Warnings

There are currently no watches in effect.